Laceys Spring, Alabama
Current Conditions -  °F | °C
As of 8:53 AM on Thursday 23 Oct 2014 (Local Time) from KHSV Reporting Station
Scattered Clouds Scattered Clouds  
Wind Chill: 10°   Ceiling: Unl
Heat Index: 10°   Visibility: 10mi
Dew Point:   Wind: 3mph
Humidity: 74%   Direction: 350°N
Pressure: 30.18"   Gusts: NA
Location:  34.53°N, 86.6°W
Report Text: KHSV 231353Z 35003KT 10SM SCT250 10/06 A3018 RMK AO2 SLP218 T01000056
Loading
Personal Weather Stations






























Interactive Weather Map
Tropical Storm Tracking
New forecast layout! Learn more

10-Day Weather Forecast

Advertisements
Track Severe Weather on mobile